sensor_id;sensor_type;location;lat;lon;timestamp;P1;durP1;ratioP1;P2;durP2;ratioP2
82372;SDS011;72000;42.828;23.382;2023-12-28T00:00:40;8.57;;;3.70;;
82372;SDS011;72000;42.828;23.382;2023-12-28T00:03:05;9.30;;;3.40;;
82372;SDS011;72000;42.828;23.382;2023-12-28T00:05:31;8.43;;;3.33;;
82372;SDS011;72000;42.828;23.382;2023-12-28T00:07:56;8.77;;;3.00;;
82372;SDS011;72000;42.828;23.382;2023-12-28T00:10:26;8.38;;;3.40;;
82372;SDS011;72000;42.828;23.382;2023-12-28T00:12:55;7.47;;;3.15;;
82372;SDS011;72000;42.828;23.382;2023-12-28T00:15:22;8.95;;;3.25;;
82372;SDS011;72000;42.828;23.382;2023-12-28T00:20:13;8.50;;;3.70;;
82372;SDS011;72000;42.828;23.382;2023-12-28T00:22:39;16.45;;;6.22;;
82372;SDS011;72000;42.828;23.382;2023-12-28T00:25:04;13.32;;;6.07;;
82372;SDS011;72000;42.828;23.382;2023-12-28T00:27:30;12.15;;;5.68;;
82372;SDS011;72000;42.828;23.382;2023-12-28T00:29:56;14.02;;;5.57;;
82372;SDS011;72000;42.828;23.382;2023-12-28T00:32:22;13.82;;;5.60;;
82372;SDS011;72000;42.828;23.382;2023-12-28T00:34:47;15.55;;;6.03;;
82372;SDS011;72000;42.828;23.382;2023-12-28T00:37:12;16.20;;;6.35;;
82372;SDS011;72000;42.828;23.382;2023-12-28T00:39:38;15.63;;;6.53;;
82372;SDS011;72000;42.828;23.382;2023-12-28T00:42:06;15.38;;;7.10;;
82372;SDS011;72000;42.828;23.382;2023-12-28T00:44:31;16.27;;;6.47;;
82372;SDS011;72000;42.828;23.382;2023-12-28T00:46:57;12.32;;;5.78;;
82372;SDS011;72000;42.828;23.382;2023-12-28T00:49:22;13.90;;;5.50;;
82372;SDS011;72000;42.828;23.382;2023-12-28T00:51:48;8.70;;;3.97;;
82372;SDS011;72000;42.828;23.382;2023-12-28T00:54:13;8.05;;;3.53;;
82372;SDS011;72000;42.828;23.382;2023-12-28T00:56:39;8.50;;;3.55;;
82372;SDS011;72000;42.828;23.382;2023-12-28T00:59:04;9.07;;;4.07;;
82372;SDS011;72000;42.828;23.382;2023-12-28T01:01:30;9.05;;;3.90;;
82372;SDS011;72000;42.828;23.382;2023-12-28T01:03:56;11.15;;;3.83;;
82372;SDS011;72000;42.828;23.382;2023-12-28T01:06:22;10.45;;;3.88;;
82372;SDS011;72000;42.828;23.382;2023-12-28T01:08:47;9.85;;;3.88;;
82372;SDS011;72000;42.828;23.382;2023-12-28T01:11:13;10.52;;;4.60;;
82372;SDS011;72000;42.828;23.382;2023-12-28T01:13:38;10.93;;;4.60;;
82372;SDS011;72000;42.828;23.382;2023-12-28T01:16:04;12.02;;;4.85;;
82372;SDS011;72000;42.828;23.382;2023-12-28T01:18:30;13.45;;;5.25;;
82372;SDS011;72000;42.828;23.382;2023-12-28T01:20:55;10.45;;;3.78;;
82372;SDS011;72000;42.828;23.382;2023-12-28T01:23:21;8.07;;;3.60;;
82372;SDS011;72000;42.828;23.382;2023-12-28T01:25:46;9.02;;;4.10;;
82372;SDS011;72000;42.828;23.382;2023-12-28T01:28:12;9.57;;;3.88;;
82372;SDS011;72000;42.828;23.382;2023-12-28T01:30:37;10.75;;;4.15;;
82372;SDS011;72000;42.828;23.382;2023-12-28T01:33:03;10.45;;;3.90;;
82372;SDS011;72000;42.828;23.382;2023-12-28T01:35:29;9.90;;;4.03;;
82372;SDS011;72000;42.828;23.382;2023-12-28T01:37:54;9.80;;;4.15;;
82372;SDS011;72000;42.828;23.382;2023-12-28T01:40:20;10.30;;;4.22;;
82372;SDS011;72000;42.828;23.382;2023-12-28T01:42:46;11.27;;;4.03;;
82372;SDS011;72000;42.828;23.382;2023-12-28T01:45:14;10.93;;;3.90;;
82372;SDS011;72000;42.828;23.382;2023-12-28T01:47:40;11.73;;;4.03;;
82372;SDS011;72000;42.828;23.382;2023-12-28T01:50:06;9.90;;;4.40;;
82372;SDS011;72000;42.828;23.382;2023-12-28T01:52:31;11.73;;;5.30;;
82372;SDS011;72000;42.828;23.382;2023-12-28T01:54:57;12.13;;;5.13;;
82372;SDS011;72000;42.828;23.382;2023-12-28T01:57:23;16.13;;;5.60;;
82372;SDS011;72000;42.828;23.382;2023-12-28T01:59:49;15.10;;;6.03;;
82372;SDS011;72000;42.828;23.382;2023-12-28T02:02:15;14.65;;;6.68;;
82372;SDS011;72000;42.828;23.382;2023-12-28T02:04:40;14.73;;;6.40;;
82372;SDS011;72000;42.828;23.382;2023-12-28T02:07:08;16.42;;;6.65;;
82372;SDS011;72000;42.828;23.382;2023-12-28T02:09:34;16.83;;;6.68;;
82372;SDS011;72000;42.828;23.382;2023-12-28T02:11:59;15.82;;;6.63;;
82372;SDS011;72000;42.828;23.382;2023-12-28T02:14:25;15.48;;;6.55;;
82372;SDS011;72000;42.828;23.382;2023-12-28T02:22:05;12.80;;;5.47;;
82372;SDS011;72000;42.828;23.382;2023-12-28T02:24:31;16.23;;;5.82;;
82372;SDS011;72000;42.828;23.382;2023-12-28T02:26:56;13.55;;;4.68;;
82372;SDS011;72000;42.828;23.382;2023-12-28T02:29:21;10.82;;;4.10;;
82372;SDS011;72000;42.828;23.382;2023-12-28T02:32:05;12.30;;;4.13;;
82372;SDS011;72000;42.828;23.382;2023-12-28T02:34:34;17.20;;;6.53;;
82372;SDS011;72000;42.828;23.382;2023-12-28T02:37:03;12.52;;;4.90;;
82372;SDS011;72000;42.828;23.382;2023-12-28T02:41:55;9.15;;;4.18;;
82372;SDS011;72000;42.828;23.382;2023-12-28T02:44:21;9.85;;;3.95;;
82372;SDS011;72000;42.828;23.382;2023-12-28T02:46:46;11.88;;;4.25;;
82372;SDS011;72000;42.828;23.382;2023-12-28T02:49:12;10.40;;;4.40;;
82372;SDS011;72000;42.828;23.382;2023-12-28T02:51:38;11.18;;;4.78;;
82372;SDS011;72000;42.828;23.382;2023-12-28T02:54:06;11.70;;;4.80;;
82372;SDS011;72000;42.828;23.382;2023-12-28T02:56:32;15.38;;;6.03;;
82372;SDS011;72000;42.828;23.382;2023-12-28T02:58:58;14.98;;;6.60;;
82372;SDS011;72000;42.828;23.382;2023-12-28T03:01:23;16.13;;;6.80;;
82372;SDS011;72000;42.828;23.382;2023-12-28T03:03:49;15.85;;;6.53;;
82372;SDS011;72000;42.828;23.382;2023-12-28T03:06:14;17.30;;;6.55;;
82372;SDS011;72000;42.828;23.382;2023-12-28T03:08:40;14.90;;;5.85;;
82372;SDS011;72000;42.828;23.382;2023-12-28T03:11:08;14.45;;;5.55;;
82372;SDS011;72000;42.828;23.382;2023-12-28T03:13:34;10.65;;;4.90;;
82372;SDS011;72000;42.828;23.382;2023-12-28T03:15:59;13.02;;;5.07;;
82372;SDS011;72000;42.828;23.382;2023-12-28T03:18:25;11.18;;;4.70;;
82372;SDS011;72000;42.828;23.382;2023-12-28T03:20:50;13.50;;;4.18;;
82372;SDS011;72000;42.828;23.382;2023-12-28T03:23:16;8.50;;;3.45;;
82372;SDS011;72000;42.828;23.382;2023-12-28T03:25:41;9.57;;;3.78;;
82372;SDS011;72000;42.828;23.382;2023-12-28T03:28:07;8.07;;;3.58;;
82372;SDS011;72000;42.828;23.382;2023-12-28T03:30:32;8.55;;;3.60;;
82372;SDS011;72000;42.828;23.382;2023-12-28T03:33:01;9.77;;;3.78;;
82372;SDS011;72000;42.828;23.382;2023-12-28T03:35:26;7.43;;;3.10;;
82372;SDS011;72000;42.828;23.382;2023-12-28T03:37:52;8.88;;;3.50;;
82372;SDS011;72000;42.828;23.382;2023-12-28T03:40:17;10.32;;;4.00;;
82372;SDS011;72000;42.828;23.382;2023-12-28T03:42:43;8.77;;;3.70;;
82372;SDS011;72000;42.828;23.382;2023-12-28T03:45:09;9.18;;;3.97;;
82372;SDS011;72000;42.828;23.382;2023-12-28T03:47:35;8.73;;;3.50;;
82372;SDS011;72000;42.828;23.382;2023-12-28T03:50:00;8.98;;;3.30;;
82372;SDS011;72000;42.828;23.382;2023-12-28T03:52:26;8.75;;;3.88;;
82372;SDS011;72000;42.828;23.382;2023-12-28T03:54:52;9.02;;;3.90;;
82372;SDS011;72000;42.828;23.382;2023-12-28T03:57:17;10.07;;;4.10;;
82372;SDS011;72000;42.828;23.382;2023-12-28T03:59:44;8.63;;;3.75;;
82372;SDS011;72000;42.828;23.382;2023-12-28T04:02:09;10.10;;;3.90;;
82372;SDS011;72000;42.828;23.382;2023-12-28T04:04:35;6.85;;;3.15;;
82372;SDS011;72000;42.828;23.382;2023-12-28T04:07:00;6.60;;;3.10;;
82372;SDS011;72000;42.828;23.382;2023-12-28T04:09:26;7.60;;;3.75;;
82372;SDS011;72000;42.828;23.382;2023-12-28T04:11:51;7.50;;;3.50;;
82372;SDS011;72000;42.828;23.382;2023-12-28T04:14:17;7.63;;;3.58;;
82372;SDS011;72000;42.828;23.382;2023-12-28T04:16:42;9.45;;;3.70;;
82372;SDS011;72000;42.828;23.382;2023-12-28T04:19:08;10.20;;;3.70;;
82372;SDS011;72000;42.828;23.382;2023-12-28T04:21:33;10.30;;;4.00;;
82372;SDS011;72000;42.828;23.382;2023-12-28T04:23:59;8.98;;;3.40;;
82372;SDS011;72000;42.828;23.382;2023-12-28T04:26:24;7.75;;;3.20;;
82372;SDS011;72000;42.828;23.382;2023-12-28T04:28:50;11.13;;;4.05;;
82372;SDS011;72000;42.828;23.382;2023-12-28T04:31:15;10.30;;;3.85;;
82372;SDS011;72000;42.828;23.382;2023-12-28T04:33:41;9.45;;;3.72;;
82372;SDS011;72000;42.828;23.382;2023-12-28T04:36:06;11.40;;;3.80;;
82372;SDS011;72000;42.828;23.382;2023-12-28T04:38:32;8.85;;;3.83;;
82372;SDS011;72000;42.828;23.382;2023-12-28T04:40:58;10.50;;;3.95;;
82372;SDS011;72000;42.828;23.382;2023-12-28T04:43:24;10.18;;;4.00;;
82372;SDS011;72000;42.828;23.382;2023-12-28T04:45:50;9.52;;;4.40;;
82372;SDS011;72000;42.828;23.382;2023-12-28T04:48:16;9.30;;;3.80;;
82372;SDS011;72000;42.828;23.382;2023-12-28T04:50:46;10.00;;;4.00;;
82372;SDS011;72000;42.828;23.382;2023-12-28T04:53:14;9.75;;;3.97;;
82372;SDS011;72000;42.828;23.382;2023-12-28T04:55:40;11.55;;;4.10;;
82372;SDS011;72000;42.828;23.382;2023-12-28T04:58:05;10.60;;;4.80;;
82372;SDS011;72000;42.828;23.382;2023-12-28T05:00:31;10.75;;;4.68;;
82372;SDS011;72000;42.828;23.382;2023-12-28T05:02:56;11.93;;;4.47;;
82372;SDS011;72000;42.828;23.382;2023-12-28T05:05:22;10.10;;;4.60;;
82372;SDS011;72000;42.828;23.382;2023-12-28T05:07:47;10.90;;;4.30;;
82372;SDS011;72000;42.828;23.382;2023-12-28T05:10:13;13.52;;;4.70;;
82372;SDS011;72000;42.828;23.382;2023-12-28T05:12:38;11.75;;;4.20;;
82372;SDS011;72000;42.828;23.382;2023-12-28T05:15:04;12.82;;;4.30;;
82372;SDS011;72000;42.828;23.382;2023-12-28T05:17:30;12.82;;;5.13;;
82372;SDS011;72000;42.828;23.382;2023-12-28T05:19:55;18.55;;;7.60;;
82372;SDS011;72000;42.828;23.382;2023-12-28T05:22:21;12.65;;;5.68;;
82372;SDS011;72000;42.828;23.382;2023-12-28T05:24:47;10.13;;;4.40;;
82372;SDS011;72000;42.828;23.382;2023-12-28T05:27:12;12.90;;;4.90;;
82372;SDS011;72000;42.828;23.382;2023-12-28T05:29:37;10.57;;;4.43;;
82372;SDS011;72000;42.828;23.382;2023-12-28T05:32:03;12.23;;;4.43;;
82372;SDS011;72000;42.828;23.382;2023-12-28T05:36:55;9.73;;;3.90;;
82372;SDS011;72000;42.828;23.382;2023-12-28T05:39:20;9.15;;;3.92;;
82372;SDS011;72000;42.828;23.382;2023-12-28T05:41:46;12.27;;;4.25;;
82372;SDS011;72000;42.828;23.382;2023-12-28T05:44:13;9.82;;;4.43;;
82372;SDS011;72000;42.828;23.382;2023-12-28T05:46:39;12.15;;;4.90;;
82372;SDS011;72000;42.828;23.382;2023-12-28T05:49:04;10.63;;;5.13;;
82372;SDS011;72000;42.828;23.382;2023-12-28T05:51:31;14.30;;;5.72;;
82372;SDS011;72000;42.828;23.382;2023-12-28T05:54:02;15.75;;;6.47;;
82372;SDS011;72000;42.828;23.382;2023-12-28T05:56:28;14.50;;;6.38;;
82372;SDS011;72000;42.828;23.382;2023-12-28T05:58:53;15.68;;;5.80;;
82372;SDS011;72000;42.828;23.382;2023-12-28T06:01:19;15.82;;;6.38;;
82372;SDS011;72000;42.828;23.382;2023-12-28T06:03:44;14.60;;;5.97;;
82372;SDS011;72000;42.828;23.382;2023-12-28T06:06:10;11.02;;;5.20;;
82372;SDS011;72000;42.828;23.382;2023-12-28T06:08:35;14.05;;;4.97;;
82372;SDS011;72000;42.828;23.382;2023-12-28T06:11:01;12.85;;;4.90;;
82372;SDS011;72000;42.828;23.382;2023-12-28T06:13:26;12.52;;;4.80;;
82372;SDS011;72000;42.828;23.382;2023-12-28T06:15:52;12.73;;;5.10;;
82372;SDS011;72000;42.828;23.382;2023-12-28T06:18:17;10.63;;;4.43;;
82372;SDS011;72000;42.828;23.382;2023-12-28T06:20:43;11.35;;;4.70;;
82372;SDS011;72000;42.828;23.382;2023-12-28T06:23:08;10.70;;;4.88;;
82372;SDS011;72000;42.828;23.382;2023-12-28T06:25:34;11.30;;;4.97;;
82372;SDS011;72000;42.828;23.382;2023-12-28T06:27:59;12.57;;;5.20;;
82372;SDS011;72000;42.828;23.382;2023-12-28T06:30:25;11.43;;;4.53;;
82372;SDS011;72000;42.828;23.382;2023-12-28T06:32:50;15.05;;;5.10;;
82372;SDS011;72000;42.828;23.382;2023-12-28T06:35:15;12.77;;;4.65;;
82372;SDS011;72000;42.828;23.382;2023-12-28T06:37:42;10.68;;;4.60;;
82372;SDS011;72000;42.828;23.382;2023-12-28T06:40:07;11.95;;;4.65;;
82372;SDS011;72000;42.828;23.382;2023-12-28T06:42:33;14.02;;;5.38;;
82372;SDS011;72000;42.828;23.382;2023-12-28T06:44:59;12.77;;;5.07;;
82372;SDS011;72000;42.828;23.382;2023-12-28T06:47:24;14.98;;;5.47;;
82372;SDS011;72000;42.828;23.382;2023-12-28T06:49:50;14.75;;;5.63;;
82372;SDS011;72000;42.828;23.382;2023-12-28T06:52:16;15.32;;;6.78;;
82372;SDS011;72000;42.828;23.382;2023-12-28T06:54:41;15.20;;;6.63;;
82372;SDS011;72000;42.828;23.382;2023-12-28T06:57:07;18.90;;;7.88;;
82372;SDS011;72000;42.828;23.382;2023-12-28T06:59:32;17.23;;;8.10;;
82372;SDS011;72000;42.828;23.382;2023-12-28T07:01:58;14.45;;;6.30;;
82372;SDS011;72000;42.828;23.382;2023-12-28T07:04:23;16.42;;;7.10;;
82372;SDS011;72000;42.828;23.382;2023-12-28T07:06:50;15.73;;;6.72;;
82372;SDS011;72000;42.828;23.382;2023-12-28T07:09:16;12.88;;;5.72;;
82372;SDS011;72000;42.828;23.382;2023-12-28T07:11:41;11.57;;;5.50;;
82372;SDS011;72000;42.828;23.382;2023-12-28T07:14:07;13.02;;;5.60;;
82372;SDS011;72000;42.828;23.382;2023-12-28T07:16:33;14.13;;;5.30;;
82372;SDS011;72000;42.828;23.382;2023-12-28T07:18:58;15.38;;;5.63;;
82372;SDS011;72000;42.828;23.382;2023-12-28T07:21:24;14.50;;;5.22;;
82372;SDS011;72000;42.828;23.382;2023-12-28T07:23:49;13.30;;;5.82;;
82372;SDS011;72000;42.828;23.382;2023-12-28T07:26:15;13.52;;;5.68;;
82372;SDS011;72000;42.828;23.382;2023-12-28T07:28:41;13.32;;;5.57;;
82372;SDS011;72000;42.828;23.382;2023-12-28T07:31:10;13.23;;;6.18;;
82372;SDS011;72000;42.828;23.382;2023-12-28T07:33:35;14.50;;;6.35;;
82372;SDS011;72000;42.828;23.382;2023-12-28T07:36:01;13.80;;;6.05;;
82372;SDS011;72000;42.828;23.382;2023-12-28T07:38:31;16.23;;;6.50;;
82372;SDS011;72000;42.828;23.382;2023-12-28T07:40:56;14.15;;;6.53;;
82372;SDS011;72000;42.828;23.382;2023-12-28T07:43:22;15.77;;;7.05;;
82372;SDS011;72000;42.828;23.382;2023-12-28T07:45:47;15.88;;;6.90;;
82372;SDS011;72000;42.828;23.382;2023-12-28T07:48:13;15.30;;;6.93;;
82372;SDS011;72000;42.828;23.382;2023-12-28T07:50:38;16.60;;;7.07;;
82372;SDS011;72000;42.828;23.382;2023-12-28T07:53:04;16.02;;;6.93;;
82372;SDS011;72000;42.828;23.382;2023-12-28T07:55:29;18.48;;;7.30;;
82372;SDS011;72000;42.828;23.382;2023-12-28T07:57:55;17.83;;;8.02;;
82372;SDS011;72000;42.828;23.382;2023-12-28T08:00:20;21.38;;;9.30;;
82372;SDS011;72000;42.828;23.382;2023-12-28T08:02:46;23.17;;;10.93;;
82372;SDS011;72000;42.828;23.382;2023-12-28T08:05:11;25.27;;;11.52;;
82372;SDS011;72000;42.828;23.382;2023-12-28T08:07:37;37.67;;;14.95;;
82372;SDS011;72000;42.828;23.382;2023-12-28T08:10:03;38.20;;;16.73;;
82372;SDS011;72000;42.828;23.382;2023-12-28T08:12:29;43.72;;;18.58;;
82372;SDS011;72000;42.828;23.382;2023-12-28T08:14:54;47.95;;;20.83;;
82372;SDS011;72000;42.828;23.382;2023-12-28T08:17:20;54.60;;;21.85;;
82372;SDS011;72000;42.828;23.382;2023-12-28T08:19:46;45.28;;;20.05;;
82372;SDS011;72000;42.828;23.382;2023-12-28T08:22:11;53.45;;;21.60;;
82372;SDS011;72000;42.828;23.382;2023-12-28T08:24:37;48.22;;;21.35;;
82372;SDS011;72000;42.828;23.382;2023-12-28T08:27:02;53.03;;;21.63;;
82372;SDS011;72000;42.828;23.382;2023-12-28T08:29:28;47.17;;;19.90;;
82372;SDS011;72000;42.828;23.382;2023-12-28T08:31:54;44.72;;;19.48;;
82372;SDS011;72000;42.828;23.382;2023-12-28T08:34:20;59.78;;;22.98;;
82372;SDS011;72000;42.828;23.382;2023-12-28T08:36:46;59.22;;;24.90;;
82372;SDS011;72000;42.828;23.382;2023-12-28T08:39:11;69.90;;;27.50;;
82372;SDS011;72000;42.828;23.382;2023-12-28T08:41:37;68.03;;;27.40;;
82372;SDS011;72000;42.828;23.382;2023-12-28T08:44:02;69.80;;;26.58;;
82372;SDS011;72000;42.828;23.382;2023-12-28T08:46:28;67.00;;;25.45;;
82372;SDS011;72000;42.828;23.382;2023-12-28T08:48:54;58.85;;;22.27;;
82372;SDS011;72000;42.828;23.382;2023-12-28T08:51:20;56.60;;;23.13;;
82372;SDS011;72000;42.828;23.382;2023-12-28T08:53:45;49.95;;;20.85;;
82372;SDS011;72000;42.828;23.382;2023-12-28T08:56:19;43.88;;;19.33;;
82372;SDS011;72000;42.828;23.382;2023-12-28T08:58:46;39.90;;;16.55;;
82372;SDS011;72000;42.828;23.382;2023-12-28T09:01:16;36.92;;;15.57;;
82372;SDS011;72000;42.828;23.382;2023-12-28T09:03:42;33.33;;;15.15;;
82372;SDS011;72000;42.828;23.382;2023-12-28T09:06:08;29.00;;;13.27;;
82372;SDS011;72000;42.828;23.382;2023-12-28T09:08:33;32.60;;;12.90;;
82372;SDS011;72000;42.828;23.382;2023-12-28T09:11:00;28.70;;;12.85;;
82372;SDS011;72000;42.828;23.382;2023-12-28T09:13:25;28.70;;;13.25;;
82372;SDS011;72000;42.828;23.382;2023-12-28T09:15:51;31.27;;;13.40;;
82372;SDS011;72000;42.828;23.382;2023-12-28T09:18:16;26.50;;;12.55;;
82372;SDS011;72000;42.828;23.382;2023-12-28T09:20:42;28.70;;;12.85;;
82372;SDS011;72000;42.828;23.382;2023-12-28T09:23:08;29.45;;;12.85;;
82372;SDS011;72000;42.828;23.382;2023-12-28T09:25:35;23.42;;;12.23;;
82372;SDS011;72000;42.828;23.382;2023-12-28T09:28:03;26.50;;;12.23;;
82372;SDS011;72000;42.828;23.382;2023-12-28T09:30:30;22.70;;;10.43;;
82372;SDS011;72000;42.828;23.382;2023-12-28T09:32:55;21.52;;;11.05;;
82372;SDS011;72000;42.828;23.382;2023-12-28T09:35:21;25.15;;;11.15;;
82372;SDS011;72000;42.828;23.382;2023-12-28T09:37:46;22.65;;;12.13;;
82372;SDS011;72000;42.828;23.382;2023-12-28T09:40:12;27.83;;;12.38;;
82372;SDS011;72000;42.828;23.382;2023-12-28T09:43:01;23.25;;;11.00;;
82372;SDS011;72000;42.828;23.382;2023-12-28T09:45:29;20.08;;;10.32;;
82372;SDS011;72000;42.828;23.382;2023-12-28T09:47:55;19.70;;;10.27;;
82372;SDS011;72000;42.828;23.382;2023-12-28T09:50:20;21.23;;;11.13;;
82372;SDS011;72000;42.828;23.382;2023-12-28T09:52:48;21.65;;;11.15;;
82372;SDS011;72000;42.828;23.382;2023-12-28T09:55:14;18.77;;;9.82;;
82372;SDS011;72000;42.828;23.382;2023-12-28T09:57:39;21.77;;;11.15;;
82372;SDS011;72000;42.828;23.382;2023-12-28T10:00:06;20.35;;;10.13;;
82372;SDS011;72000;42.828;23.382;2023-12-28T10:02:32;20.35;;;9.88;;
82372;SDS011;72000;42.828;23.382;2023-12-28T10:04:58;17.38;;;9.63;;
82372;SDS011;72000;42.828;23.382;2023-12-28T10:07:24;18.05;;;9.30;;
82372;SDS011;72000;42.828;23.382;2023-12-28T10:09:49;18.20;;;9.85;;
82372;SDS011;72000;42.828;23.382;2023-12-28T10:12:15;19.95;;;10.50;;
82372;SDS011;72000;42.828;23.382;2023-12-28T10:14:43;19.42;;;10.13;;
82372;SDS011;72000;42.828;23.382;2023-12-28T10:17:09;17.48;;;10.27;;
82372;SDS011;72000;42.828;23.382;2023-12-28T10:19:36;24.35;;;10.80;;
82372;SDS011;72000;42.828;23.382;2023-12-28T10:22:02;20.17;;;10.18;;
82372;SDS011;72000;42.828;23.382;2023-12-28T10:24:28;21.92;;;10.45;;
82372;SDS011;72000;42.828;23.382;2023-12-28T10:26:53;21.50;;;10.75;;
82372;SDS011;72000;42.828;23.382;2023-12-28T10:29:19;25.92;;;11.77;;
82372;SDS011;72000;42.828;23.382;2023-12-28T10:31:46;20.23;;;10.52;;
82372;SDS011;72000;42.828;23.382;2023-12-28T10:34:15;22.85;;;10.38;;
82372;SDS011;72000;42.828;23.382;2023-12-28T10:36:41;20.70;;;10.57;;
82372;SDS011;72000;42.828;23.382;2023-12-28T10:39:08;20.30;;;9.98;;
82372;SDS011;72000;42.828;23.382;2023-12-28T10:41:36;17.58;;;9.55;;
82372;SDS011;72000;42.828;23.382;2023-12-28T10:46:30;20.88;;;8.98;;
82372;SDS011;72000;42.828;23.382;2023-12-28T10:49:09;17.73;;;8.35;;
82372;SDS011;72000;42.828;23.382;2023-12-28T10:51:37;16.92;;;8.82;;
82372;SDS011;72000;42.828;23.382;2023-12-28T10:54:52;18.75;;;8.80;;
82372;SDS011;72000;42.828;23.382;2023-12-28T10:57:09;18.88;;;9.30;;
82372;SDS011;72000;42.828;23.382;2023-12-28T10:59:45;18.67;;;9.38;;
82372;SDS011;72000;42.828;23.382;2023-12-28T11:02:16;19.40;;;9.35;;
82372;SDS011;72000;42.828;23.382;2023-12-28T11:04:48;17.67;;;8.75;;
82372;SDS011;72000;42.828;23.382;2023-12-28T11:07:15;20.05;;;9.13;;
82372;SDS011;72000;42.828;23.382;2023-12-28T11:09:43;16.95;;;9.30;;
82372;SDS011;72000;42.828;23.382;2023-12-28T11:12:09;19.95;;;10.35;;
82372;SDS011;72000;42.828;23.382;2023-12-28T11:14:41;22.40;;;10.35;;
82372;SDS011;72000;42.828;23.382;2023-12-28T11:17:09;21.13;;;10.13;;
82372;SDS011;72000;42.828;23.382;2023-12-28T11:19:35;21.42;;;10.68;;
82372;SDS011;72000;42.828;23.382;2023-12-28T11:22:01;18.88;;;9.63;;
82372;SDS011;72000;42.828;23.382;2023-12-28T11:24:28;18.65;;;9.82;;
82372;SDS011;72000;42.828;23.382;2023-12-28T11:26:54;18.92;;;9.57;;
82372;SDS011;72000;42.828;23.382;2023-12-28T11:29:21;18.60;;;9.68;;
82372;SDS011;72000;42.828;23.382;2023-12-28T11:34:26;16.95;;;9.50;;
82372;SDS011;72000;42.828;23.382;2023-12-28T11:36:54;18.45;;;9.35;;
82372;SDS011;72000;42.828;23.382;2023-12-28T11:39:39;16.50;;;8.65;;
82372;SDS011;72000;42.828;23.382;2023-12-28T11:42:06;17.13;;;8.93;;
82372;SDS011;72000;42.828;23.382;2023-12-28T11:44:42;16.52;;;8.55;;
82372;SDS011;72000;42.828;23.382;2023-12-28T11:47:25;15.55;;;8.63;;
82372;SDS011;72000;42.828;23.382;2023-12-28T11:49:54;17.30;;;9.07;;
82372;SDS011;72000;42.828;23.382;2023-12-28T11:54:57;16.30;;;8.15;;
82372;SDS011;72000;42.828;23.382;2023-12-28T11:57:24;16.15;;;8.45;;
82372;SDS011;72000;42.828;23.382;2023-12-28T11:59:54;15.98;;;8.55;;
82372;SDS011;72000;42.828;23.382;2023-12-28T12:02:21;17.70;;;8.63;;
82372;SDS011;72000;42.828;23.382;2023-12-28T12:04:46;148.30;;;59.95;;
82372;SDS011;72000;42.828;23.382;2023-12-28T12:07:12;181.43;;;67.45;;
82372;SDS011;72000;42.828;23.382;2023-12-28T12:09:38;544.17;;;170.63;;
82372;SDS011;72000;42.828;23.382;2023-12-28T12:12:04;751.97;;;289.70;;
82372;SDS011;72000;42.828;23.382;2023-12-28T12:14:30;194.48;;;75.28;;
82372;SDS011;72000;42.828;23.382;2023-12-28T12:16:56;19.23;;;9.15;;
82372;SDS011;72000;42.828;23.382;2023-12-28T12:19:25;28.08;;;12.88;;
82372;SDS011;72000;42.828;23.382;2023-12-28T12:21:54;132.75;;;48.92;;
82372;SDS011;72000;42.828;23.382;2023-12-28T12:24:20;18.05;;;9.38;;
82372;SDS011;72000;42.828;23.382;2023-12-28T12:29:12;74.00;;;26.52;;
82372;SDS011;72000;42.828;23.382;2023-12-28T12:31:39;24.80;;;11.45;;
82372;SDS011;72000;42.828;23.382;2023-12-28T12:34:16;18.98;;;9.30;;
82372;SDS011;72000;42.828;23.382;2023-12-28T12:36:42;18.38;;;8.82;;
82372;SDS011;72000;42.828;23.382;2023-12-28T12:39:09;17.67;;;8.43;;
82372;SDS011;72000;42.828;23.382;2023-12-28T12:41:36;15.45;;;8.10;;
82372;SDS011;72000;42.828;23.382;2023-12-28T12:46:29;15.82;;;8.63;;
82372;SDS011;72000;42.828;23.382;2023-12-28T12:48:59;15.32;;;8.23;;
82372;SDS011;72000;42.828;23.382;2023-12-28T12:51:26;15.38;;;8.40;;
82372;SDS011;72000;42.828;23.382;2023-12-28T12:53:58;14.80;;;8.23;;
82372;SDS011;72000;42.828;23.382;2023-12-28T12:56:27;17.17;;;8.82;;
82372;SDS011;72000;42.828;23.382;2023-12-28T12:58:53;14.40;;;7.78;;
82372;SDS011;72000;42.828;23.382;2023-12-28T13:01:20;17.38;;;8.55;;
82372;SDS011;72000;42.828;23.382;2023-12-28T13:03:45;15.93;;;8.02;;
82372;SDS011;72000;42.828;23.382;2023-12-28T13:06:11;14.82;;;8.60;;
82372;SDS011;72000;42.828;23.382;2023-12-28T13:08:37;15.13;;;7.63;;
82372;SDS011;72000;42.828;23.382;2023-12-28T13:11:03;15.52;;;7.68;;
82372;SDS011;72000;42.828;23.382;2023-12-28T13:13:29;14.57;;;7.78;;
82372;SDS011;72000;42.828;23.382;2023-12-28T13:15:55;13.95;;;8.02;;
82372;SDS011;72000;42.828;23.382;2023-12-28T13:18:21;16.30;;;7.82;;
82372;SDS011;72000;42.828;23.382;2023-12-28T13:20:46;14.25;;;7.57;;
82372;SDS011;72000;42.828;23.382;2023-12-28T13:23:12;17.27;;;8.18;;
82372;SDS011;72000;42.828;23.382;2023-12-28T13:25:37;14.43;;;8.25;;
82372;SDS011;72000;42.828;23.382;2023-12-28T13:28:03;13.30;;;7.18;;
82372;SDS011;72000;42.828;23.382;2023-12-28T13:30:29;12.88;;;7.05;;
82372;SDS011;72000;42.828;23.382;2023-12-28T13:32:54;14.35;;;7.55;;
82372;SDS011;72000;42.828;23.382;2023-12-28T13:35:23;19.02;;;7.97;;
82372;SDS011;72000;42.828;23.382;2023-12-28T13:37:49;19.15;;;7.53;;
82372;SDS011;72000;42.828;23.382;2023-12-28T13:40:14;17.40;;;8.23;;
82372;SDS011;72000;42.828;23.382;2023-12-28T13:42:40;16.58;;;8.93;;
82372;SDS011;72000;42.828;23.382;2023-12-28T13:45:06;17.77;;;9.18;;
82372;SDS011;72000;42.828;23.382;2023-12-28T13:47:32;18.02;;;9.02;;
82372;SDS011;72000;42.828;23.382;2023-12-28T13:49:58;17.98;;;8.68;;
82372;SDS011;72000;42.828;23.382;2023-12-28T13:52:23;17.10;;;8.70;;
82372;SDS011;72000;42.828;23.382;2023-12-28T13:54:49;18.02;;;8.38;;
82372;SDS011;72000;42.828;23.382;2023-12-28T13:57:14;17.40;;;8.77;;
82372;SDS011;72000;42.828;23.382;2023-12-28T13:59:40;16.15;;;8.27;;
82372;SDS011;72000;42.828;23.382;2023-12-28T14:02:06;15.90;;;8.27;;
82372;SDS011;72000;42.828;23.382;2023-12-28T14:04:31;14.35;;;7.97;;
82372;SDS011;72000;42.828;23.382;2023-12-28T14:06:57;18.08;;;8.50;;
82372;SDS011;72000;42.828;23.382;2023-12-28T14:09:22;26.58;;;14.23;;
82372;SDS011;72000;42.828;23.382;2023-12-28T14:11:48;16.40;;;8.52;;
82372;SDS011;72000;42.828;23.382;2023-12-28T14:14:14;16.30;;;8.43;;
82372;SDS011;72000;42.828;23.382;2023-12-28T14:16:39;19.10;;;8.70;;
82372;SDS011;72000;42.828;23.382;2023-12-28T14:19:05;18.02;;;8.02;;
82372;SDS011;72000;42.828;23.382;2023-12-28T14:21:37;16.95;;;8.30;;
82372;SDS011;72000;42.828;23.382;2023-12-28T14:24:03;17.58;;;7.85;;
82372;SDS011;72000;42.828;23.382;2023-12-28T14:26:31;18.13;;;8.00;;
82372;SDS011;72000;42.828;23.382;2023-12-28T14:28:58;14.60;;;7.70;;
82372;SDS011;72000;42.828;23.382;2023-12-28T14:31:24;24.30;;;9.70;;
82372;SDS011;72000;42.828;23.382;2023-12-28T14:33:51;19.20;;;8.75;;
82372;SDS011;72000;42.828;23.382;2023-12-28T14:38:57;17.13;;;8.30;;
82372;SDS011;72000;42.828;23.382;2023-12-28T14:41:24;21.42;;;10.32;;
82372;SDS011;72000;42.828;23.382;2023-12-28T14:43:49;36.72;;;13.95;;